KCDH/CDH METAR and TAF weather

Enter ICAO airport designator
Station Type Date Time Source
KCDH METAR 2018/07/21 13:15 UTC NOAA

KCDH 211315Z AUTO 17007KT 8SM CLR 27/21 A2994 RMK AO2


Station Type Date Time Source
KCDH Decoded METAR 2018/07/21 13:15 UTC NOAA

Camden / Harrell Field, AR, United States (KCDH) 33-37N 092-46W
Jul 21, 2018 - 09:15 AM EDT / 2018.07.21 1315 UTC
Wind: from the S (170 degrees) at 8 MPH (7 KT):0
Visibility: 8 mile(s):0
Sky conditions: clear
Temperature: 80 F (27 C)
Dew Point: 69 F (21 C)
Relative Humidity: 69%
Pressure (altimeter): 29.94 in. Hg (1013 hPa)
ob: KCDH 211315Z AUTO 17007KT 8SM CLR 27/21 A2994 RMK AO2
cycle: 13

Station Type Date Time Source
KCDH TAF UTC NOAA

Error!


Example: see airport list